Terminal Aerodrome Forecast
Issued by NWS

Home | Current Version | Previous Version | Graphics & Text | Print | Product List | Glossary On
Versions: 1 2 3 4 5 6 7 8 9 10 11 12 13 14 15 16 17 18
000
FTUS43 KBIS 102338
TAFDIK
TAF
KDIK 102338Z 1100/1124 28014KT P6SM BKN150
     FM110300 28018KT P6SM FEW250 WS020/31050KT
     FM110900 30021G31KT P6SM OVC025
     FM111200 31021G29KT P6SM VCSH OVC015
     FM111500 31018G25KT P6SM OVC015
     FM112200 31016KT P6SM BKN015=

USA.gov is the U.S. government's official web portal to all federal, state and local government web resources and services.